Latest Weather Observations for Richmond

IDN60901

Issued at 6:45 am EST Saturday 19 April 2014 (issued every 10 minutes, with the page automatically refreshed every 10 minutes)

About weather observations | Map of Sydney area stations | Latest observations for Sydney area | Other Formats
Station Details ID: 067105 Name: RICHMOND RAAF Lat: -33.60 Lon: 150.78 Height: 19.0 m
Data from the previous 72 hours. | See also: Recent months at Richmond
Date/Time
EST
Tmp

°C
App
Tmp
°C
Dew
Point
°C
Rel
Hum
%
Delta-T

°C
Wind Press
QNH
hPa
Press
MSL
hPa
Rain
since
9 am
mm
Dir
 
Spd
km/h
Gust
km/h
Spd
kts
Gust
kts
19/06:30am 10.0 10.1 10.0 100 0.0 NE 0 0 0 0 1016.1 - 0.0
19/06:00am 10.2 10.3 10.2 100 0.0 NNE 0 0 0 0 1015.9 1015.8 0.0
19/05:30am 10.4 10.5 10.2 99 0.1 CALM 0 0 0 0 1015.5 - 0.0
19/05:00am 10.1 10.1 9.9 99 0.1 CALM 0 0 0 0 1015.4 - 0.0
19/04:30am 10.8 10.9 10.2 96 0.3 CALM 0 0 0 0 1015.2 - 0.0
19/04:00am 11.0 11.3 10.8 99 0.1 CALM 0 0 0 0 1014.9 - 0.0
19/03:30am 11.0 10.4 10.5 97 0.3 WSW 4 9 2 5 1014.8 - 0.0
19/03:00am 11.5 11.0 10.9 96 0.3 S 4 7 2 4 1014.7 1014.6 0.0
19/02:30am 11.4 11.6 10.5 94 0.5 CALM 0 6 0 3 1014.8 - 0.0
19/02:00am 12.1 12.3 10.7 91 0.7 CALM 0 0 0 0 1014.4 - 0.0
19/01:30am 13.0 13.2 10.5 85 1.3 CALM 0 0 0 0 1014.4 - 0.0
19/01:00am 12.9 12.9 9.9 82 1.5 CALM 0 0 0 0 1014.3 - 0.0
19/12:30am 14.1 13.6 9.5 74 2.4 SW 2 9 1 5 1014.0 - 0.0
19/12:00am 14.7 14.7 9.7 72 2.6 NNW 0 0 0 0 1013.8 1013.7 0.0
 
Date/Time
EST
Tmp

°C
App
Tmp
°C
Dew
Point
°C
Rel
Hum
%
Delta-T

°C
Wind Press
QNH
hPa
Press
MSL
hPa
Rain
since
9 am
mm
Dir
 
Spd
km/h
Gust
km/h
Spd
kts
Gust
kts
18/11:30pm 14.0 14.1 10.2 78 2.0 CALM 0 0 0 0 1013.9 - 0.0
18/11:00pm 15.1 13.9 10.3 73 2.5 WNW 7 11 4 6 1014.1 - 0.0
18/10:30pm 15.0 14.0 10.2 73 2.5 N 6 9 3 5 1014.1 - 0.0
18/10:00pm 16.8 14.2 9.5 62 3.8 NW 13 17 7 9 1014.4 - 0.0
18/09:30pm 17.8 15.4 9.9 60 4.2 W 13 17 7 9 1014.8 - 0.0
18/09:00pm 17.6 14.7 9.8 60 4.1 NW 15 19 8 10 1014.5 1014.4 0.0
18/08:30pm 17.0 15.6 9.7 62 3.8 WNW 7 9 4 5 1014.6 - 0.0
18/08:00pm 19.1 16.4 9.0 52 5.3 W 13 17 7 9 1014.4 - 0.0
18/07:30pm 19.5 17.3 9.4 52 5.3 WNW 11 17 6 9 1014.1 - 0.0
18/07:00pm 18.8 16.7 8.2 50 5.5 NW 9 11 5 6 1013.6 - 0.0
18/06:30pm 19.5 16.7 8.5 49 5.7 W 13 17 7 9 1013.5 - 0.0
18/06:00pm 20.8 17.8 7.8 43 6.7 W 13 20 7 11 1013.3 1013.2 0.0
18/05:30pm 20.8 17.9 8.1 44 6.6 W 13 19 7 10 1013.0 - 0.0
18/05:00pm 23.4 19.0 7.5 36 8.3 W 20 30 11 16 1012.5 - 0.0
18/04:30pm 24.9 24.5 9.6 38 8.4 NNW 2 9 1 5 1011.9 - 0.0
18/04:00pm 25.6 25.5 9.4 36 8.9 CALM 0 0 0 0 1011.8 - 0.0
18/03:30pm 25.0 24.0 8.9 36 8.7 SSE 4 9 2 5 1012.0 - 0.0
18/03:00pm 24.4 23.5 9.2 38 8.2 ESE 4 9 2 5 1012.0 1011.9 0.0
18/02:30pm 24.7 23.6 9.8 39 8.2 ESE 6 17 3 9 1012.0 - 0.0
18/02:00pm 24.8 24.4 8.3 35 8.8 CALM 0 7 0 4 1012.2 - 0.0
18/01:30pm 24.5 23.0 9.3 38 8.3 NE 7 11 4 6 1012.5 - 0.0
18/01:00pm 24.1 24.3 10.4 42 7.6 CALM 0 0 0 0 1012.9 - 0.0
18/12:30pm 23.6 22.9 9.9 42 7.5 NE 4 13 2 7 1013.4 - 0.0
18/12:00pm 22.5 22.4 9.3 43 7.1 CALM 0 0 0 0 1014.2 1014.1 0.0
18/11:30am 21.7 22.1 11.4 52 5.7 CALM 0 6 0 3 1014.8 - 0.0
18/11:00am 20.3 20.7 11.2 56 5.0 CALM 0 7 0 4 1015.3 - 0.0
18/10:30am 19.6 20.8 13.8 69 3.3 CALM 0 6 0 3 1015.9 - 0.0
18/10:00am 18.1 17.9 13.0 72 2.9 SE 6 7 3 4 1016.2 - 0.0
18/09:30am 17.4 18.4 13.3 77 2.3 CALM 0 6 0 3 1016.4 - 0.0
18/09:00am 16.0 16.7 12.2 78 2.1 CALM 0 0 0 0 1016.8 1016.7 0.0
18/08:30am 14.2 15.1 12.8 91 0.8 CALM 0 4 0 2 1016.9 - 0.0
18/08:00am 12.8 13.6 12.6 99 0.1 CALM 0 6 0 3 1017.1 - 0.0
18/07:30am 11.9 12.5 11.9 100 0.0 CALM 0 0 0 0 1017.1 - 0.0
18/07:04am 10.5 10.7 10.5 100 0.0 CALM 0 0 0 0 1017.2 - 0.0
18/07:00am 10.0 10.1 10.0 100 0.0 CALM 0 0 0 0 1017.2 - 0.0
18/06:52am 9.5 9.4 9.5 100 0.0 CALM 0 0 0 0 1017.2 - 0.0
18/06:45am 9.2 9.0 9.2 100 0.0 CALM 0 0 0 0 1017.2 - 0.0
18/06:30am 9.0 8.8 9.0 100 0.0 CALM 0 0 0 0 1017.1 - 0.0
18/06:28am 9.0 8.8 9.0 100 0.0 CALM 0 0 0 0 1017.1 - 0.0
18/06:23am 9.1 8.9 9.1 100 0.0 CALM 0 0 0 0 1017.1 - 0.0
18/06:09am 9.6 9.5 9.6 100 0.0 CALM 0 0 0 0 1017.0 - 0.0
18/06:08am 9.6 9.5 9.6 100 0.0 CALM 0 0 0 0 1017.0 - 0.0
18/06:05am 9.6 9.5 9.6 100 0.0 CALM 0 0 0 0 1017.0 - 0.0
18/06:00am 9.4 9.3 9.4 100 0.0 CALM 0 0 0 0 1017.0 1016.9 0.0
18/05:30am 9.3 9.2 9.3 100 0.0 CALM 0 0 0 0 1017.1 - 0.0
18/05:13am 10.1 10.2 10.1 100 0.0 CALM 0 0 0 0 1017.1 - 0.0
18/05:00am 9.8 9.8 9.8 100 0.0 CALM 0 0 0 0 1017.2 - 0.0
18/04:50am 10.1 10.2 10.1 100 0.0 CALM 0 0 0 0 1017.2 - 0.0
18/04:30am 10.6 10.8 10.6 100 0.0 CALM 0 0 0 0 1017.2 - 0.0
18/04:24am 10.6 10.8 10.6 100 0.0 CALM 0 0 0 0 1017.2 - 0.0
18/04:18am 10.8 11.1 10.8 100 0.0 CALM 0 0 0 0 1017.3 - 0.0
18/04:04am 10.8 11.1 10.8 100 0.0 CALM 0 0 0 0 1017.4 - 0.0
18/04:00am 10.5 10.7 10.5 100 0.0 CALM 0 0 0 0 1017.4 - 0.0
18/03:52am 10.2 10.3 10.2 100 0.0 CALM 0 0 0 0 1017.3 - 0.0
18/03:45am 10.5 10.7 10.5 100 0.0 CALM 0 0 0 0 1017.3 - 0.0
18/03:36am 10.8 11.1 10.8 100 0.0 CALM 0 0 0 0 1017.3 - 0.0
18/03:30am 11.0 11.3 11.0 100 0.0 CALM 0 0 0 0 1017.3 - 0.0
18/03:10am 10.7 10.9 10.7 100 0.0 CALM 0 6 0 3 1017.3 - 0.0
18/03:00am 11.2 11.2 11.2 100 0.0 W 2 6 1 3 1017.3 1017.2 0.0
18/02:30am 11.1 11.5 11.1 100 0.0 CALM 0 0 0 0 1017.4 - 0.0
18/02:00am 12.1 12.8 12.1 100 0.0 CALM 0 0 0 0 1017.7 - 0.0
18/01:30am 11.9 12.5 11.9 100 0.0 CALM 0 0 0 0 1018.0 - 0.0
18/01:00am 12.3 13.0 12.3 100 0.0 CALM 0 0 0 0 1018.3 - 0.0
18/12:30am 12.7 13.5 12.4 98 0.2 CALM 0 0 0 0 1018.6 - 0.0
18/12:00am 12.8 11.9 11.5 92 0.7 W 7 9 4 5 1018.9 1018.8 0.0
 
Date/Time
EST
Tmp

°C
App
Tmp
°C
Dew
Point
°C
Rel
Hum
%
Delta-T

°C
Wind Press
QNH
hPa
Press
MSL
hPa
Rain
since
9 am
mm
Dir
 
Spd
km/h
Gust
km/h
Spd
kts
Gust
kts
17/11:30pm 14.1 13.6 12.7 91 0.8 WSW 7 11 4 6 1019.0 - 0.0
17/11:00pm 14.3 13.5 12.9 91 0.8 WSW 9 11 5 6 1019.3 - 0.0
17/10:30pm 14.5 13.8 13.2 92 0.7 W 9 11 5 6 1019.5 - 0.0
17/10:00pm 14.9 14.3 13.4 91 0.8 W 9 11 5 6 1019.6 - 0.0
17/09:30pm 14.7 15.1 13.6 93 0.6 W 4 9 2 5 1019.7 - 0.0
17/09:00pm 15.0 15.6 13.0 88 1.1 WSW 2 7 1 4 1019.6 1019.5 0.0
17/08:30pm 16.0 15.6 13.1 83 1.6 WSW 7 9 4 5 1019.7 - 0.0
17/08:00pm 16.6 16.3 13.3 81 1.8 WSW 7 9 4 5 1019.4 - 0.0
17/07:30pm 17.2 18.1 12.9 76 2.4 CALM 0 0 0 0 1019.2 - 0.0
17/07:00pm 17.7 18.2 12.8 73 2.7 SSE 2 9 1 5 1019.0 - 0.0
17/06:30pm 18.4 17.9 12.2 67 3.4 SSE 6 9 3 5 1018.7 - 0.0
17/06:00pm 18.4 16.6 10.7 61 4.1 ESE 11 15 6 8 1018.2 1018.1 0.0
17/05:30pm 19.3 17.3 10.3 56 4.8 E 11 15 6 8 1017.8 - 0.0
17/05:00pm 20.1 17.7 10.2 53 5.3 E 13 15 7 8 1017.4 - 0.0
17/04:30pm 22.0 19.4 9.5 45 6.7 E 13 17 7 9 1017.1 - 0.0
17/04:00pm 22.6 19.5 8.7 41 7.4 SE 15 19 8 10 1016.9 - 0.0
17/03:30pm 23.4 20.4 7.5 36 8.3 SSE 13 19 7 10 1016.9 - 0.0
17/03:00pm 23.8 21.2 7.8 36 8.4 SSE 11 20 6 11 1016.9 1016.8 0.0
17/02:30pm 24.3 22.4 10.6 42 7.6 SE 11 15 6 8 1017.1 - 0.0
17/02:00pm 23.6 19.7 8.8 39 7.9 S 19 24 10 13 1017.3 - 0.0
17/01:30pm 23.0 20.3 9.0 41 7.5 SE 13 22 7 12 1017.4 - 0.0
17/01:00pm 23.1 20.1 9.1 41 7.5 S 15 24 8 13 1017.8 - 0.0
17/12:30pm 23.0 20.1 9.8 43 7.2 SSE 15 20 8 11 1018.1 - 0.0
17/12:00pm 22.1 18.8 8.2 41 7.3 S 15 22 8 12 1018.8 1018.7 0.0
17/11:30am 22.1 18.5 8.2 41 7.3 SSW 17 22 9 12 1019.3 - 0.0
17/11:00am 22.1 18.7 9.3 44 6.9 SSE 17 20 9 11 1019.6 - 0.0
17/10:30am 20.7 21.4 12.1 58 4.8 CALM 0 7 0 4 1019.8 - 0.0
17/10:00am 19.3 19.7 12.6 65 3.8 ESE 2 9 1 5 1019.9 - 0.0
17/09:30am 18.0 19.1 13.5 75 2.5 CALM 0 6 0 3 1019.9 - 0.0
17/09:00am 16.6 17.1 12.9 79 2.1 SE 2 9 1 5 1020.0 1019.9 0.0
17/08:30am 15.5 15.9 12.4 82 1.7 ESE 2 7 1 4 1020.1 - 0.0
17/08:00am 14.4 15.5 13.6 95 0.4 CALM 0 0 0 0 1019.9 - 0.0
17/07:30am 12.5 13.3 12.5 100 0.0 CALM 0 0 0 0 1019.8 - 0.0
17/07:00am 11.2 11.6 11.2 100 0.0 CALM 0 0 0 0 1019.4 - 0.0
17/06:37am 10.3 10.4 10.3 100 0.0 CALM 0 0 0 0 1019.1 - 0.0
17/06:30am 9.9 9.9 9.9 100 0.0 CALM 0 0 0 0 1019.0 - 0.0
17/06:20am 9.7 9.7 9.7 100 0.0 CALM 0 0 0 0 1018.8 - 0.0
17/06:08am 9.8 9.8 9.8 100 0.0 CALM 0 0 0 0 1018.6 - 0.0
17/06:00am 9.5 9.4 9.5 100 0.0 CALM 0 0 0 0 1018.7 1018.6 0.0
17/05:49am 9.8 9.8 9.8 100 0.0 CALM 0 0 0 0 1018.7 - 0.0
17/05:30am 10.4 10.6 10.4 100 0.0 CALM 0 0 0 0 1018.7 - 0.0
17/05:00am 10.6 9.7 10.6 100 0.0 SE 6 9 3 5 1018.5 - 0.0
17/04:30am 10.1 10.2 10.1 100 0.0 CALM 0 0 0 0 1018.3 - 0.0
17/04:00am 10.6 10.8 10.6 100 0.0 CALM 0 0 0 0 1018.2 - 0.0
17/03:30am 10.9 11.2 10.9 100 0.0 CALM 0 0 0 0 1018.2 - 0.0
17/03:13am 11.1 11.5 11.1 100 0.0 CALM 0 0 0 0 1018.0 - 0.0
17/03:00am 11.3 11.7 11.3 100 0.0 CALM 0 0 0 0 1018.1 1018.0 0.0
17/02:53am 11.4 11.8 11.4 100 0.0 CALM 0 0 0 0 1018.1 - 0.0
17/02:30am 11.5 12.0 11.5 100 0.0 CALM 0 0 0 0 1018.1 - 0.0
17/02:00am 11.9 12.5 11.9 100 0.0 CALM 0 0 0 0 1018.2 - 0.0
17/01:30am 11.9 12.5 11.9 100 0.0 CALM 0 0 0 0 1018.6 - 0.0
17/01:00am 12.0 12.6 11.8 99 0.1 CALM 0 0 0 0 1019.0 - 0.0
17/12:30am 12.7 13.5 12.4 98 0.2 CALM 0 0 0 0 1019.0 - 0.0
17/12:00am 12.8 13.6 12.5 98 0.2 CALM 0 0 0 0 1019.1 1019.0 0.0
 
Date/Time
EST
Tmp

°C
App
Tmp
°C
Dew
Point
°C
Rel
Hum
%
Delta-T

°C
Wind Press
QNH
hPa
Press
MSL
hPa
Rain
since
9 am
mm
Dir
 
Spd
km/h
Gust
km/h
Spd
kts
Gust
kts
16/11:30pm 13.1 13.7 12.0 93 0.6 CALM 0 0 0 0 1019.1 - 0.0
16/11:00pm 14.0 14.8 12.6 91 0.8 CALM 0 0 0 0 1019.2 - 0.0
16/10:30pm 14.8 14.5 12.7 87 1.2 W 6 7 3 4 1019.3 - 0.0
16/10:00pm 14.9 14.5 12.9 88 1.1 W 7 9 4 5 1019.4 - 0.0
16/09:30pm 14.8 14.3 12.8 88 1.1 W 7 9 4 5 1019.5 - 0.0
16/09:00pm 15.3 15.1 13.1 87 1.2 W 6 9 3 5 1019.4 1019.3 0.0
16/08:30pm 15.7 16.5 12.5 81 1.8 CALM 0 0 0 0 1019.2 - 0.0
16/08:00pm 16.9 17.7 12.4 75 2.5 CALM 0 0 0 0 1019.0 - 0.0
16/07:30pm 16.1 17.0 12.8 81 1.8 CALM 0 0 0 0 1018.9 - 0.0
16/07:00pm 16.8 17.3 11.5 71 2.9 CALM 0 0 0 0 1018.6 - 0.0
16/06:30pm 18.2 17.1 12.0 67 3.4 SSE 9 11 5 6 1018.3 - 0.0
16/06:00pm 18.8 17.2 11.6 63 3.9 SSE 11 13 6 7 1017.9 1017.8 0.0
16/05:30pm 19.8 18.7 11.8 60 4.4 SE 9 13 5 7 1017.5 - 0.0
16/05:00pm 20.1 18.7 12.1 60 4.5 SE 11 13 6 7 1017.3 - 0.0
16/04:30pm 21.4 19.2 12.0 55 5.3 SE 15 20 8 11 1017.0 - 0.0
16/04:00pm 21.6 19.2 12.7 57 5.1 SE 17 19 9 10 1016.9 - 0.0
16/03:30pm 21.7 18.6 11.7 53 5.6 SE 19 26 10 14 1016.9 - 0.0
16/03:00pm 22.7 21.3 12.3 52 5.9 ESE 11 20 6 11 1017.0 1016.9 0.0
16/02:30pm 21.9 19.2 11.6 52 5.8 SE 17 24 9 13 1017.1 - 0.0
16/02:00pm 22.7 21.4 12.6 53 5.8 SSE 11 20 6 11 1017.2 - 0.0
16/01:30pm 21.3 19.7 12.7 58 4.9 SSE 13 20 7 11 1017.4 - 0.0
16/01:00pm 22.6 20.2 11.4 49 6.3 SSW 15 20 8 11 1017.4 - 0.0
16/12:30pm 22.8 21.5 13.6 56 5.3 SSE 13 19 7 10 1018.0 - 0.0
16/12:00pm 21.4 19.6 12.0 55 5.3 SSW 13 24 7 13 1018.7 1018.6 0.0
16/11:30am 21.1 18.1 12.0 56 5.1 S 19 24 10 13 1019.2 - 0.0
16/11:00am 20.6 17.9 11.8 57 4.9 S 17 22 9 12 1019.6 - 0.0
16/10:30am 20.9 17.5 12.6 59 4.7 SW 22 32 12 17 1019.7 - 0.0
16/10:00am 19.5 16.5 11.8 61 4.3 SSW 19 26 10 14 1020.0 - 0.0
16/09:30am 19.7 16.7 12.7 64 3.9 SSW 20 26 11 14 1020.1 - 0.0
16/09:00am 18.7 16.0 11.8 64 3.8 SSW 17 26 9 14 1020.2 1020.1 0.0
16/08:30am 19.0 15.8 11.8 63 4.0 SW 20 26 11 14 1020.1 - 0.0
16/08:00am 17.9 15.1 11.2 65 3.6 SSW 17 24 9 13 1019.9 - 0.0
16/07:30am 17.2 15.1 11.2 68 3.2 SSW 13 20 7 11 1019.7 - 0.0
16/07:00am 16.5 15.3 11.6 73 2.7 SW 9 13 5 7 1019.4 - 0.0

Latest Capital City Observations: Canberra | Sydney | Melbourne | Brisbane | Adelaide | Perth | Hobart | Darwin

Other Formats:

Comma delimited format used in spreadsheet applications
http://www.bom.gov.au/fwo/IDN60901/IDN60901.95753.axf

JavaScript Object Notation format (JSON) in row-major order
http://www.bom.gov.au/fwo/IDN60901/IDN60901.95753.json